sensor_id;sensor_type;location;lat;lon;timestamp;P1;durP1;ratioP1;P2;durP2;ratioP2
18512;SDS011;9385;48.380;9.744;2022-12-05T00:01:37;14.07;;;7.00;;
18512;SDS011;9385;48.380;9.744;2022-12-05T00:04:06;14.98;;;7.68;;
18512;SDS011;9385;48.380;9.744;2022-12-05T00:06:35;14.88;;;7.47;;
18512;SDS011;9385;48.380;9.744;2022-12-05T00:09:03;14.77;;;7.47;;
18512;SDS011;9385;48.380;9.744;2022-12-05T00:11:34;15.65;;;7.30;;
18512;SDS011;9385;48.380;9.744;2022-12-05T00:14:03;14.02;;;7.20;;
18512;SDS011;9385;48.380;9.744;2022-12-05T00:16:31;14.27;;;6.95;;
18512;SDS011;9385;48.380;9.744;2022-12-05T00:18:59;14.45;;;7.50;;
18512;SDS011;9385;48.380;9.744;2022-12-05T00:21:28;16.47;;;7.80;;
18512;SDS011;9385;48.380;9.744;2022-12-05T00:23:57;15.45;;;7.55;;
18512;SDS011;9385;48.380;9.744;2022-12-05T00:26:26;14.73;;;7.47;;
18512;SDS011;9385;48.380;9.744;2022-12-05T00:28:55;14.77;;;7.13;;
18512;SDS011;9385;48.380;9.744;2022-12-05T00:31:22;15.50;;;7.75;;
18512;SDS011;9385;48.380;9.744;2022-12-05T00:33:50;17.67;;;8.70;;
18512;SDS011;9385;48.380;9.744;2022-12-05T00:36:18;16.17;;;7.88;;
18512;SDS011;9385;48.380;9.744;2022-12-05T00:38:46;17.27;;;7.82;;
18512;SDS011;9385;48.380;9.744;2022-12-05T00:41:14;14.95;;;7.35;;
18512;SDS011;9385;48.380;9.744;2022-12-05T00:43:42;13.75;;;7.13;;
18512;SDS011;9385;48.380;9.744;2022-12-05T00:46:13;13.83;;;6.97;;
18512;SDS011;9385;48.380;9.744;2022-12-05T00:48:42;13.73;;;7.40;;
18512;SDS011;9385;48.380;9.744;2022-12-05T00:51:10;14.03;;;7.20;;
18512;SDS011;9385;48.380;9.744;2022-12-05T00:53:38;14.68;;;7.50;;
18512;SDS011;9385;48.380;9.744;2022-12-05T00:56:06;15.07;;;7.30;;
18512;SDS011;9385;48.380;9.744;2022-12-05T00:58:36;14.25;;;7.28;;
18512;SDS011;9385;48.380;9.744;2022-12-05T01:01:06;16.42;;;7.55;;
18512;SDS011;9385;48.380;9.744;2022-12-05T01:03:36;14.07;;;7.45;;
18512;SDS011;9385;48.380;9.744;2022-12-05T01:06:03;15.32;;;7.63;;
18512;SDS011;9385;48.380;9.744;2022-12-05T01:08:31;15.93;;;7.68;;
18512;SDS011;9385;48.380;9.744;2022-12-05T01:10:59;14.52;;;7.40;;
18512;SDS011;9385;48.380;9.744;2022-12-05T01:13:27;14.85;;;7.57;;
18512;SDS011;9385;48.380;9.744;2022-12-05T01:15:54;15.95;;;7.60;;
18512;SDS011;9385;48.380;9.744;2022-12-05T01:18:22;14.98;;;7.63;;
18512;SDS011;9385;48.380;9.744;2022-12-05T01:20:51;14.20;;;7.25;;
18512;SDS011;9385;48.380;9.744;2022-12-05T01:23:18;13.73;;;7.47;;
18512;SDS011;9385;48.380;9.744;2022-12-05T01:25:47;14.93;;;7.70;;
18512;SDS011;9385;48.380;9.744;2022-12-05T01:28:16;15.07;;;7.50;;
18512;SDS011;9385;48.380;9.744;2022-12-05T01:30:44;14.45;;;7.40;;
18512;SDS011;9385;48.380;9.744;2022-12-05T01:33:13;14.88;;;7.85;;
18512;SDS011;9385;48.380;9.744;2022-12-05T01:35:40;15.98;;;7.57;;
18512;SDS011;9385;48.380;9.744;2022-12-05T01:38:09;14.65;;;7.60;;
18512;SDS011;9385;48.380;9.744;2022-12-05T01:40:36;13.98;;;7.57;;
18512;SDS011;9385;48.380;9.744;2022-12-05T01:43:05;13.73;;;7.40;;
18512;SDS011;9385;48.380;9.744;2022-12-05T01:45:39;14.20;;;7.70;;
18512;SDS011;9385;48.380;9.744;2022-12-05T01:48:10;14.68;;;8.23;;
18512;SDS011;9385;48.380;9.744;2022-12-05T01:50:40;13.45;;;7.07;;
18512;SDS011;9385;48.380;9.744;2022-12-05T01:53:09;15.40;;;7.50;;
18512;SDS011;9385;48.380;9.744;2022-12-05T01:55:36;15.82;;;7.70;;
18512;SDS011;9385;48.380;9.744;2022-12-05T01:58:04;14.95;;;7.07;;
18512;SDS011;9385;48.380;9.744;2022-12-05T02:00:33;12.82;;;7.15;;
18512;SDS011;9385;48.380;9.744;2022-12-05T02:03:01;14.80;;;7.35;;
18512;SDS011;9385;48.380;9.744;2022-12-05T02:05:32;11.35;;;6.13;;
18512;SDS011;9385;48.380;9.744;2022-12-05T02:08:02;13.65;;;7.32;;
18512;SDS011;9385;48.380;9.744;2022-12-05T02:10:34;15.05;;;7.68;;
18512;SDS011;9385;48.380;9.744;2022-12-05T02:13:04;16.52;;;7.93;;
18512;SDS011;9385;48.380;9.744;2022-12-05T02:15:43;15.73;;;8.05;;
18512;SDS011;9385;48.380;9.744;2022-12-05T02:18:20;16.27;;;8.05;;
18512;SDS011;9385;48.380;9.744;2022-12-05T02:20:59;17.20;;;8.23;;
18512;SDS011;9385;48.380;9.744;2022-12-05T02:23:40;14.18;;;7.43;;
18512;SDS011;9385;48.380;9.744;2022-12-05T02:26:30;15.35;;;7.68;;
18512;SDS011;9385;48.380;9.744;2022-12-05T02:32:24;16.35;;;7.63;;
18512;SDS011;9385;48.380;9.744;2022-12-05T02:35:03;15.35;;;7.93;;
18512;SDS011;9385;48.380;9.744;2022-12-05T02:37:39;16.63;;;7.93;;
18512;SDS011;9385;48.380;9.744;2022-12-05T02:40:09;17.33;;;8.40;;
18512;SDS011;9385;48.380;9.744;2022-12-05T02:42:47;14.88;;;7.78;;
18512;SDS011;9385;48.380;9.744;2022-12-05T02:45:21;14.68;;;7.80;;
18512;SDS011;9385;48.380;9.744;2022-12-05T02:47:51;15.68;;;7.78;;
18512;SDS011;9385;48.380;9.744;2022-12-05T02:50:19;15.55;;;8.10;;
18512;SDS011;9385;48.380;9.744;2022-12-05T02:52:50;16.00;;;7.88;;
18512;SDS011;9385;48.380;9.744;2022-12-05T02:55:21;15.77;;;8.03;;
18512;SDS011;9385;48.380;9.744;2022-12-05T02:57:52;16.27;;;8.20;;
18512;SDS011;9385;48.380;9.744;2022-12-05T03:00:24;16.67;;;8.13;;
18512;SDS011;9385;48.380;9.744;2022-12-05T03:02:52;15.00;;;7.78;;
18512;SDS011;9385;48.380;9.744;2022-12-05T03:05:24;16.25;;;8.05;;
18512;SDS011;9385;48.380;9.744;2022-12-05T03:07:58;16.77;;;8.80;;
18512;SDS011;9385;48.380;9.744;2022-12-05T03:10:29;17.35;;;8.70;;
18512;SDS011;9385;48.380;9.744;2022-12-05T03:13:00;16.92;;;8.90;;
18512;SDS011;9385;48.380;9.744;2022-12-05T03:15:32;17.52;;;8.93;;
18512;SDS011;9385;48.380;9.744;2022-12-05T03:18:03;18.02;;;8.32;;
18512;SDS011;9385;48.380;9.744;2022-12-05T03:20:35;17.07;;;8.50;;
18512;SDS011;9385;48.380;9.744;2022-12-05T03:23:10;17.65;;;8.93;;
18512;SDS011;9385;48.380;9.744;2022-12-05T03:25:40;19.73;;;9.68;;
18512;SDS011;9385;48.380;9.744;2022-12-05T03:28:15;19.45;;;9.27;;
18512;SDS011;9385;48.380;9.744;2022-12-05T03:30:48;19.27;;;9.83;;
18512;SDS011;9385;48.380;9.744;2022-12-05T03:33:21;19.60;;;9.60;;
18512;SDS011;9385;48.380;9.744;2022-12-05T03:35:52;19.05;;;9.65;;
18512;SDS011;9385;48.380;9.744;2022-12-05T03:38:25;19.73;;;9.50;;
18512;SDS011;9385;48.380;9.744;2022-12-05T03:40:59;18.80;;;9.13;;
18512;SDS011;9385;48.380;9.744;2022-12-05T03:43:33;18.27;;;9.37;;
18512;SDS011;9385;48.380;9.744;2022-12-05T03:46:08;20.50;;;9.15;;
18512;SDS011;9385;48.380;9.744;2022-12-05T03:48:40;19.17;;;9.65;;
18512;SDS011;9385;48.380;9.744;2022-12-05T03:51:15;17.27;;;9.10;;
18512;SDS011;9385;48.380;9.744;2022-12-05T03:53:46;19.55;;;9.15;;
18512;SDS011;9385;48.380;9.744;2022-12-05T03:56:18;18.35;;;9.20;;
18512;SDS011;9385;48.380;9.744;2022-12-05T03:58:51;18.45;;;9.13;;
18512;SDS011;9385;48.380;9.744;2022-12-05T04:01:25;18.45;;;10.13;;
18512;SDS011;9385;48.380;9.744;2022-12-05T04:03:56;19.27;;;9.82;;
18512;SDS011;9385;48.380;9.744;2022-12-05T04:06:28;21.25;;;10.48;;
18512;SDS011;9385;48.380;9.744;2022-12-05T04:08:59;19.58;;;9.82;;
18512;SDS011;9385;48.380;9.744;2022-12-05T04:11:29;20.15;;;10.38;;
18512;SDS011;9385;48.380;9.744;2022-12-05T04:13:59;20.27;;;10.43;;
18512;SDS011;9385;48.380;9.744;2022-12-05T04:16:32;24.40;;;11.65;;
18512;SDS011;9385;48.380;9.744;2022-12-05T04:19:21;22.23;;;10.73;;
18512;SDS011;9385;48.380;9.744;2022-12-05T04:21:52;21.27;;;10.07;;
18512;SDS011;9385;48.380;9.744;2022-12-05T04:24:21;19.85;;;10.10;;
18512;SDS011;9385;48.380;9.744;2022-12-05T04:27:11;22.13;;;10.65;;
18512;SDS011;9385;48.380;9.744;2022-12-05T04:29:49;21.05;;;10.70;;
18512;SDS011;9385;48.380;9.744;2022-12-05T04:32:23;21.15;;;10.48;;
18512;SDS011;9385;48.380;9.744;2022-12-05T04:34:57;21.65;;;11.18;;
18512;SDS011;9385;48.380;9.744;2022-12-05T04:37:29;19.13;;;10.13;;
18512;SDS011;9385;48.380;9.744;2022-12-05T04:40:00;18.92;;;10.18;;
18512;SDS011;9385;48.380;9.744;2022-12-05T04:42:33;19.83;;;10.40;;
18512;SDS011;9385;48.380;9.744;2022-12-05T04:45:03;22.60;;;11.35;;
18512;SDS011;9385;48.380;9.744;2022-12-05T04:47:36;22.77;;;11.02;;
18512;SDS011;9385;48.380;9.744;2022-12-05T04:50:07;26.02;;;11.32;;
18512;SDS011;9385;48.380;9.744;2022-12-05T04:52:36;23.33;;;12.00;;
18512;SDS011;9385;48.380;9.744;2022-12-05T04:55:06;23.23;;;11.35;;
18512;SDS011;9385;48.380;9.744;2022-12-05T04:57:36;23.27;;;11.45;;
18512;SDS011;9385;48.380;9.744;2022-12-05T05:00:09;22.35;;;11.55;;
18512;SDS011;9385;48.380;9.744;2022-12-05T05:02:39;23.45;;;11.95;;
18512;SDS011;9385;48.380;9.744;2022-12-05T05:05:12;24.23;;;11.80;;
18512;SDS011;9385;48.380;9.744;2022-12-05T05:07:43;22.92;;;11.23;;
18512;SDS011;9385;48.380;9.744;2022-12-05T05:10:12;21.77;;;11.25;;
18512;SDS011;9385;48.380;9.744;2022-12-05T05:12:44;21.92;;;10.80;;
18512;SDS011;9385;48.380;9.744;2022-12-05T05:15:11;20.30;;;9.38;;
18512;SDS011;9385;48.380;9.744;2022-12-05T05:17:39;17.05;;;9.30;;
18512;SDS011;9385;48.380;9.744;2022-12-05T05:20:06;17.50;;;9.07;;
18512;SDS011;9385;48.380;9.744;2022-12-05T05:22:49;18.92;;;9.52;;
18512;SDS011;9385;48.380;9.744;2022-12-05T05:25:17;16.35;;;9.00;;
18512;SDS011;9385;48.380;9.744;2022-12-05T05:27:46;17.00;;;9.40;;
18512;SDS011;9385;48.380;9.744;2022-12-05T05:30:15;17.13;;;9.23;;
18512;SDS011;9385;48.380;9.744;2022-12-05T05:32:44;17.60;;;9.30;;
18512;SDS011;9385;48.380;9.744;2022-12-05T05:35:12;16.30;;;9.15;;
18512;SDS011;9385;48.380;9.744;2022-12-05T05:37:39;15.82;;;8.63;;
18512;SDS011;9385;48.380;9.744;2022-12-05T05:40:08;17.05;;;7.72;;
18512;SDS011;9385;48.380;9.744;2022-12-05T05:42:40;16.55;;;8.80;;
18512;SDS011;9385;48.380;9.744;2022-12-05T05:45:08;15.70;;;8.48;;
18512;SDS011;9385;48.380;9.744;2022-12-05T05:47:36;14.07;;;8.20;;
18512;SDS011;9385;48.380;9.744;2022-12-05T05:50:05;15.15;;;8.23;;
18512;SDS011;9385;48.380;9.744;2022-12-05T05:52:35;14.60;;;8.10;;
18512;SDS011;9385;48.380;9.744;2022-12-05T05:55:02;16.35;;;9.43;;
18512;SDS011;9385;48.380;9.744;2022-12-05T05:57:31;14.88;;;7.90;;
18512;SDS011;9385;48.380;9.744;2022-12-05T05:59:58;17.02;;;8.88;;
18512;SDS011;9385;48.380;9.744;2022-12-05T06:02:24;15.02;;;8.48;;
18512;SDS011;9385;48.380;9.744;2022-12-05T06:04:56;16.13;;;8.97;;
18512;SDS011;9385;48.380;9.744;2022-12-05T06:07:25;16.13;;;8.52;;
18512;SDS011;9385;48.380;9.744;2022-12-05T06:09:52;14.87;;;8.10;;
18512;SDS011;9385;48.380;9.744;2022-12-05T06:12:19;13.20;;;7.97;;
18512;SDS011;9385;48.380;9.744;2022-12-05T06:14:46;13.70;;;7.68;;
18512;SDS011;9385;48.380;9.744;2022-12-05T06:17:14;13.10;;;7.77;;
18512;SDS011;9385;48.380;9.744;2022-12-05T06:19:41;15.88;;;8.35;;
18512;SDS011;9385;48.380;9.744;2022-12-05T06:22:08;15.05;;;8.10;;
18512;SDS011;9385;48.380;9.744;2022-12-05T06:24:36;14.57;;;8.38;;
18512;SDS011;9385;48.380;9.744;2022-12-05T06:27:03;16.25;;;9.18;;
18512;SDS011;9385;48.380;9.744;2022-12-05T06:29:30;19.70;;;10.70;;
18512;SDS011;9385;48.380;9.744;2022-12-05T06:31:57;14.82;;;8.90;;
18512;SDS011;9385;48.380;9.744;2022-12-05T06:34:24;16.17;;;8.77;;
18512;SDS011;9385;48.380;9.744;2022-12-05T06:36:51;15.05;;;8.13;;
18512;SDS011;9385;48.380;9.744;2022-12-05T06:39:17;15.77;;;8.35;;
18512;SDS011;9385;48.380;9.744;2022-12-05T06:41:46;15.68;;;8.55;;
18512;SDS011;9385;48.380;9.744;2022-12-05T06:44:13;15.60;;;8.18;;
18512;SDS011;9385;48.380;9.744;2022-12-05T06:46:40;13.70;;;8.35;;
18512;SDS011;9385;48.380;9.744;2022-12-05T06:49:08;14.82;;;8.43;;
18512;SDS011;9385;48.380;9.744;2022-12-05T06:51:36;15.00;;;8.80;;
18512;SDS011;9385;48.380;9.744;2022-12-05T06:54:02;17.33;;;8.65;;
18512;SDS011;9385;48.380;9.744;2022-12-05T06:56:29;16.92;;;8.80;;
18512;SDS011;9385;48.380;9.744;2022-12-05T06:58:58;15.05;;;8.43;;
18512;SDS011;9385;48.380;9.744;2022-12-05T07:01:25;15.38;;;8.43;;
18512;SDS011;9385;48.380;9.744;2022-12-05T07:04:03;15.57;;;8.70;;
18512;SDS011;9385;48.380;9.744;2022-12-05T07:06:32;18.48;;;9.38;;
18512;SDS011;9385;48.380;9.744;2022-12-05T07:09:00;16.53;;;9.80;;
18512;SDS011;9385;48.380;9.744;2022-12-05T07:11:27;20.83;;;11.07;;
18512;SDS011;9385;48.380;9.744;2022-12-05T07:13:54;17.90;;;9.82;;
18512;SDS011;9385;48.380;9.744;2022-12-05T07:16:23;20.17;;;11.25;;
18512;SDS011;9385;48.380;9.744;2022-12-05T07:18:50;42.05;;;23.10;;
18512;SDS011;9385;48.380;9.744;2022-12-05T07:21:17;18.27;;;10.05;;
18512;SDS011;9385;48.380;9.744;2022-12-05T07:23:46;17.50;;;9.25;;
18512;SDS011;9385;48.380;9.744;2022-12-05T07:26:15;17.20;;;9.17;;
18512;SDS011;9385;48.380;9.744;2022-12-05T07:28:43;16.08;;;8.50;;
18512;SDS011;9385;48.380;9.744;2022-12-05T07:31:11;16.80;;;9.32;;
18512;SDS011;9385;48.380;9.744;2022-12-05T07:33:40;18.70;;;10.73;;
18512;SDS011;9385;48.380;9.744;2022-12-05T07:36:08;16.63;;;9.18;;
18512;SDS011;9385;48.380;9.744;2022-12-05T07:38:37;16.85;;;9.27;;
18512;SDS011;9385;48.380;9.744;2022-12-05T07:41:04;15.67;;;9.37;;
18512;SDS011;9385;48.380;9.744;2022-12-05T07:43:32;20.05;;;11.02;;
18512;SDS011;9385;48.380;9.744;2022-12-05T07:46:02;17.80;;;9.60;;
18512;SDS011;9385;48.380;9.744;2022-12-05T07:48:30;17.33;;;9.70;;
18512;SDS011;9385;48.380;9.744;2022-12-05T07:50:59;18.10;;;10.02;;
18512;SDS011;9385;48.380;9.744;2022-12-05T07:53:27;18.23;;;10.75;;
18512;SDS011;9385;48.380;9.744;2022-12-05T07:55:57;16.85;;;9.82;;
18512;SDS011;9385;48.380;9.744;2022-12-05T07:58:25;18.58;;;10.00;;
18512;SDS011;9385;48.380;9.744;2022-12-05T08:00:54;18.55;;;10.18;;
18512;SDS011;9385;48.380;9.744;2022-12-05T08:03:21;17.50;;;9.90;;
18512;SDS011;9385;48.380;9.744;2022-12-05T08:05:48;19.67;;;10.52;;
18512;SDS011;9385;48.380;9.744;2022-12-05T08:08:16;21.70;;;11.38;;
18512;SDS011;9385;48.380;9.744;2022-12-05T08:10:43;20.00;;;10.65;;
18512;SDS011;9385;48.380;9.744;2022-12-05T08:13:10;20.85;;;11.13;;
18512;SDS011;9385;48.380;9.744;2022-12-05T08:15:37;21.92;;;11.68;;
18512;SDS011;9385;48.380;9.744;2022-12-05T08:18:04;21.50;;;12.02;;
18512;SDS011;9385;48.380;9.744;2022-12-05T08:20:31;23.13;;;11.87;;
18512;SDS011;9385;48.380;9.744;2022-12-05T08:22:58;22.73;;;12.27;;
18512;SDS011;9385;48.380;9.744;2022-12-05T08:25:26;22.73;;;12.37;;
18512;SDS011;9385;48.380;9.744;2022-12-05T08:27:53;24.58;;;13.27;;
18512;SDS011;9385;48.380;9.744;2022-12-05T08:30:20;24.33;;;12.60;;
18512;SDS011;9385;48.380;9.744;2022-12-05T08:32:47;26.05;;;13.35;;
18512;SDS011;9385;48.380;9.744;2022-12-05T08:35:14;23.42;;;13.00;;
18512;SDS011;9385;48.380;9.744;2022-12-05T08:37:41;25.65;;;13.27;;
18512;SDS011;9385;48.380;9.744;2022-12-05T08:40:08;24.20;;;12.80;;
18512;SDS011;9385;48.380;9.744;2022-12-05T08:42:37;23.75;;;12.27;;
18512;SDS011;9385;48.380;9.744;2022-12-05T08:45:04;22.65;;;12.18;;
18512;SDS011;9385;48.380;9.744;2022-12-05T08:47:32;25.10;;;13.95;;
18512;SDS011;9385;48.380;9.744;2022-12-05T08:49:58;25.30;;;14.45;;
18512;SDS011;9385;48.380;9.744;2022-12-05T08:52:25;26.33;;;14.48;;
18512;SDS011;9385;48.380;9.744;2022-12-05T08:54:52;25.30;;;13.73;;
18512;SDS011;9385;48.380;9.744;2022-12-05T08:57:19;22.92;;;12.30;;
18512;SDS011;9385;48.380;9.744;2022-12-05T08:59:48;22.35;;;12.10;;
18512;SDS011;9385;48.380;9.744;2022-12-05T09:02:15;24.30;;;13.23;;
18512;SDS011;9385;48.380;9.744;2022-12-05T09:04:42;23.42;;;12.23;;
18512;SDS011;9385;48.380;9.744;2022-12-05T09:07:09;21.77;;;11.73;;
18512;SDS011;9385;48.380;9.744;2022-12-05T09:09:36;24.55;;;13.05;;
18512;SDS011;9385;48.380;9.744;2022-12-05T09:12:03;26.40;;;13.93;;
18512;SDS011;9385;48.380;9.744;2022-12-05T09:14:30;25.00;;;13.30;;
18512;SDS011;9385;48.380;9.744;2022-12-05T09:16:59;25.67;;;12.52;;
18512;SDS011;9385;48.380;9.744;2022-12-05T09:19:26;22.05;;;11.93;;
18512;SDS011;9385;48.380;9.744;2022-12-05T09:21:54;24.48;;;13.18;;
18512;SDS011;9385;48.380;9.744;2022-12-05T09:24:22;24.23;;;13.60;;
18512;SDS011;9385;48.380;9.744;2022-12-05T09:26:50;26.08;;;13.32;;
18512;SDS011;9385;48.380;9.744;2022-12-05T09:29:17;25.10;;;12.77;;
18512;SDS011;9385;48.380;9.744;2022-12-05T09:31:45;19.98;;;11.68;;
18512;SDS011;9385;48.380;9.744;2022-12-05T09:34:16;19.42;;;11.25;;
18512;SDS011;9385;48.380;9.744;2022-12-05T09:36:44;19.67;;;10.75;;
18512;SDS011;9385;48.380;9.744;2022-12-05T09:39:13;20.75;;;11.05;;
18512;SDS011;9385;48.380;9.744;2022-12-05T09:41:54;20.52;;;10.75;;
18512;SDS011;9385;48.380;9.744;2022-12-05T09:47:52;20.85;;;11.07;;
18512;SDS011;9385;48.380;9.744;2022-12-05T09:50:24;21.13;;;10.95;;
18512;SDS011;9385;48.380;9.744;2022-12-05T09:53:03;21.60;;;11.02;;
18512;SDS011;9385;48.380;9.744;2022-12-05T09:55:37;20.05;;;12.02;;
18512;SDS011;9385;48.380;9.744;2022-12-05T09:58:23;20.92;;;11.73;;
18512;SDS011;9385;48.380;9.744;2022-12-05T10:00:53;20.08;;;10.82;;
18512;SDS011;9385;48.380;9.744;2022-12-05T10:03:28;18.77;;;9.77;;
18512;SDS011;9385;48.380;9.744;2022-12-05T10:06:11;18.60;;;9.68;;
18512;SDS011;9385;48.380;9.744;2022-12-05T10:08:48;16.83;;;9.15;;
18512;SDS011;9385;48.380;9.744;2022-12-05T10:11:27;16.35;;;9.23;;
18512;SDS011;9385;48.380;9.744;2022-12-05T10:14:03;17.20;;;9.35;;
18512;SDS011;9385;48.380;9.744;2022-12-05T10:16:37;17.90;;;9.55;;
18512;SDS011;9385;48.380;9.744;2022-12-05T10:19:11;14.80;;;8.13;;
18512;SDS011;9385;48.380;9.744;2022-12-05T10:21:44;18.30;;;8.55;;
18512;SDS011;9385;48.380;9.744;2022-12-05T10:24:16;13.30;;;7.60;;
18512;SDS011;9385;48.380;9.744;2022-12-05T10:26:50;13.82;;;7.40;;
18512;SDS011;9385;48.380;9.744;2022-12-05T10:29:22;12.85;;;7.60;;
18512;SDS011;9385;48.380;9.744;2022-12-05T10:31:53;13.60;;;7.85;;
18512;SDS011;9385;48.380;9.744;2022-12-05T10:34:28;13.40;;;7.47;;
18512;SDS011;9385;48.380;9.744;2022-12-05T10:37:01;12.03;;;6.80;;
18512;SDS011;9385;48.380;9.744;2022-12-05T10:39:35;14.82;;;8.63;;
18512;SDS011;9385;48.380;9.744;2022-12-05T10:42:02;10.98;;;6.72;;
18512;SDS011;9385;48.380;9.744;2022-12-05T10:44:30;15.15;;;7.60;;
18512;SDS011;9385;48.380;9.744;2022-12-05T10:46:58;12.90;;;7.40;;
18512;SDS011;9385;48.380;9.744;2022-12-05T10:49:26;9.35;;;5.68;;
18512;SDS011;9385;48.380;9.744;2022-12-05T10:51:54;7.70;;;5.10;;
18512;SDS011;9385;48.380;9.744;2022-12-05T10:54:23;8.77;;;5.40;;
18512;SDS011;9385;48.380;9.744;2022-12-05T10:56:54;7.97;;;4.40;;
18512;SDS011;9385;48.380;9.744;2022-12-05T10:59:22;9.50;;;5.15;;
18512;SDS011;9385;48.380;9.744;2022-12-05T11:01:51;9.80;;;5.00;;
18512;SDS011;9385;48.380;9.744;2022-12-05T11:04:24;7.35;;;4.60;;
18512;SDS011;9385;48.380;9.744;2022-12-05T11:06:58;9.93;;;4.43;;
18512;SDS011;9385;48.380;9.744;2022-12-05T11:09:28;7.38;;;4.00;;
18512;SDS011;9385;48.380;9.744;2022-12-05T11:11:59;7.85;;;4.63;;
18512;SDS011;9385;48.380;9.744;2022-12-05T11:14:30;5.78;;;3.85;;
18512;SDS011;9385;48.380;9.744;2022-12-05T11:17:00;5.90;;;3.58;;
18512;SDS011;9385;48.380;9.744;2022-12-05T11:19:29;6.80;;;3.50;;
18512;SDS011;9385;48.380;9.744;2022-12-05T11:21:58;8.40;;;4.20;;
18512;SDS011;9385;48.380;9.744;2022-12-05T11:24:28;6.32;;;3.55;;
18512;SDS011;9385;48.380;9.744;2022-12-05T11:26:58;6.28;;;3.63;;
18512;SDS011;9385;48.380;9.744;2022-12-05T11:29:27;5.93;;;3.60;;
18512;SDS011;9385;48.380;9.744;2022-12-05T11:31:55;7.13;;;3.20;;
18512;SDS011;9385;48.380;9.744;2022-12-05T11:34:23;7.28;;;3.35;;
18512;SDS011;9385;48.380;9.744;2022-12-05T11:36:53;6.90;;;4.00;;
18512;SDS011;9385;48.380;9.744;2022-12-05T11:39:24;13.23;;;7.60;;
18512;SDS011;9385;48.380;9.744;2022-12-05T11:44:50;5.97;;;3.58;;
18512;SDS011;9385;48.380;9.744;2022-12-05T11:47:52;4.90;;;3.00;;
18512;SDS011;9385;48.380;9.744;2022-12-05T11:50:35;5.72;;;4.10;;
18512;SDS011;9385;48.380;9.744;2022-12-05T11:53:24;5.78;;;4.07;;
18512;SDS011;9385;48.380;9.744;2022-12-05T11:56:15;6.82;;;4.43;;
18512;SDS011;9385;48.380;9.744;2022-12-05T11:58:55;5.30;;;3.70;;
18512;SDS011;9385;48.380;9.744;2022-12-05T12:01:35;40.17;;;18.98;;
18512;SDS011;9385;48.380;9.744;2022-12-05T12:04:16;32.20;;;15.50;;
18512;SDS011;9385;48.380;9.744;2022-12-05T12:07:04;9.18;;;4.57;;
18512;SDS011;9385;48.380;9.744;2022-12-05T12:09:45;7.00;;;4.35;;
18512;SDS011;9385;48.380;9.744;2022-12-05T12:12:20;6.20;;;4.18;;
18512;SDS011;9385;48.380;9.744;2022-12-05T12:14:59;7.03;;;4.20;;
18512;SDS011;9385;48.380;9.744;2022-12-05T12:17:50;6.37;;;4.20;;
18512;SDS011;9385;48.380;9.744;2022-12-05T12:20:26;7.85;;;4.28;;
18512;SDS011;9385;48.380;9.744;2022-12-05T12:23:16;6.20;;;4.18;;
18512;SDS011;9385;48.380;9.744;2022-12-05T12:25:57;7.38;;;4.55;;
18512;SDS011;9385;48.380;9.744;2022-12-05T12:28:36;7.50;;;4.57;;
18512;SDS011;9385;48.380;9.744;2022-12-05T12:31:13;6.93;;;4.40;;
18512;SDS011;9385;48.380;9.744;2022-12-05T12:33:51;7.55;;;4.75;;
18512;SDS011;9385;48.380;9.744;2022-12-05T12:36:25;6.25;;;4.07;;
18512;SDS011;9385;48.380;9.744;2022-12-05T12:39:02;8.25;;;4.70;;
18512;SDS011;9385;48.380;9.744;2022-12-05T12:41:50;7.25;;;4.43;;
18512;SDS011;9385;48.380;9.744;2022-12-05T12:44:42;8.75;;;4.55;;
18512;SDS011;9385;48.380;9.744;2022-12-05T12:47:29;7.20;;;4.20;;
18512;SDS011;9385;48.380;9.744;2022-12-05T12:50:08;8.90;;;4.38;;
18512;SDS011;9385;48.380;9.744;2022-12-05T12:52:49;7.30;;;3.97;;
18512;SDS011;9385;48.380;9.744;2022-12-05T12:55:29;7.90;;;4.50;;
18512;SDS011;9385;48.380;9.744;2022-12-05T12:58:05;6.32;;;4.18;;
18512;SDS011;9385;48.380;9.744;2022-12-05T13:00:45;7.38;;;4.10;;
18512;SDS011;9385;48.380;9.744;2022-12-05T13:03:23;7.03;;;4.47;;
18512;SDS011;9385;48.380;9.744;2022-12-05T13:05:57;5.65;;;3.90;;
18512;SDS011;9385;48.380;9.744;2022-12-05T13:08:27;8.27;;;3.80;;
18512;SDS011;9385;48.380;9.744;2022-12-05T13:11:01;6.78;;;4.10;;
18512;SDS011;9385;48.380;9.744;2022-12-05T13:13:33;6.45;;;3.97;;
18512;SDS011;9385;48.380;9.744;2022-12-05T13:16:04;6.32;;;3.90;;
18512;SDS011;9385;48.380;9.744;2022-12-05T13:18:34;5.60;;;3.35;;
18512;SDS011;9385;48.380;9.744;2022-12-05T13:21:02;4.30;;;3.05;;
18512;SDS011;9385;48.380;9.744;2022-12-05T13:23:33;4.47;;;3.20;;
18512;SDS011;9385;48.380;9.744;2022-12-05T13:26:06;4.55;;;3.20;;
18512;SDS011;9385;48.380;9.744;2022-12-05T13:28:36;4.97;;;3.33;;
18512;SDS011;9385;48.380;9.744;2022-12-05T13:31:07;5.78;;;3.30;;
18512;SDS011;9385;48.380;9.744;2022-12-05T13:33:42;7.30;;;4.10;;
18512;SDS011;9385;48.380;9.744;2022-12-05T13:36:11;7.53;;;4.20;;
18512;SDS011;9385;48.380;9.744;2022-12-05T13:38:58;6.85;;;3.58;;
18512;SDS011;9385;48.380;9.744;2022-12-05T13:41:45;5.45;;;3.50;;
18512;SDS011;9385;48.380;9.744;2022-12-05T13:44:33;5.15;;;3.35;;
18512;SDS011;9385;48.380;9.744;2022-12-05T13:47:04;6.07;;;3.38;;
18512;SDS011;9385;48.380;9.744;2022-12-05T13:49:44;5.70;;;2.90;;
18512;SDS011;9385;48.380;9.744;2022-12-05T13:52:17;5.90;;;2.70;;
18512;SDS011;9385;48.380;9.744;2022-12-05T13:54:47;3.58;;;2.47;;
18512;SDS011;9385;48.380;9.744;2022-12-05T14:00:25;5.20;;;2.67;;
18512;SDS011;9385;48.380;9.744;2022-12-05T14:02:55;6.40;;;3.10;;
18512;SDS011;9385;48.380;9.744;2022-12-05T14:05:44;4.15;;;2.90;;
18512;SDS011;9385;48.380;9.744;2022-12-05T14:11:16;4.00;;;2.85;;
18512;SDS011;9385;48.380;9.744;2022-12-05T14:13:43;3.58;;;2.50;;
18512;SDS011;9385;48.380;9.744;2022-12-05T14:19:11;4.75;;;2.85;;
18512;SDS011;9385;48.380;9.744;2022-12-05T14:21:57;4.38;;;2.80;;
18512;SDS011;9385;48.380;9.744;2022-12-05T14:24:31;3.78;;;2.80;;
18512;SDS011;9385;48.380;9.744;2022-12-05T14:27:04;4.18;;;2.83;;
18512;SDS011;9385;48.380;9.744;2022-12-05T14:29:43;4.53;;;2.90;;
18512;SDS011;9385;48.380;9.744;2022-12-05T14:32:27;4.07;;;2.80;;
18512;SDS011;9385;48.380;9.744;2022-12-05T14:34:56;5.07;;;3.05;;
18512;SDS011;9385;48.380;9.744;2022-12-05T14:37:31;3.80;;;2.60;;
18512;SDS011;9385;48.380;9.744;2022-12-05T14:40:01;4.00;;;2.65;;
18512;SDS011;9385;48.380;9.744;2022-12-05T14:42:34;4.85;;;2.70;;
18512;SDS011;9385;48.380;9.744;2022-12-05T14:45:16;4.25;;;2.83;;
18512;SDS011;9385;48.380;9.744;2022-12-05T14:47:56;5.85;;;3.40;;
18512;SDS011;9385;48.380;9.744;2022-12-05T14:50:35;7.03;;;4.32;;
18512;SDS011;9385;48.380;9.744;2022-12-05T14:56:13;6.07;;;3.80;;
18512;SDS011;9385;48.380;9.744;2022-12-05T14:58:54;5.80;;;3.90;;
18512;SDS011;9385;48.380;9.744;2022-12-05T15:01:25;5.60;;;3.70;;
18512;SDS011;9385;48.380;9.744;2022-12-05T15:03:59;6.80;;;3.90;;
18512;SDS011;9385;48.380;9.744;2022-12-05T15:06:34;5.07;;;3.60;;
18512;SDS011;9385;48.380;9.744;2022-12-05T15:09:20;6.35;;;4.05;;
18512;SDS011;9385;48.380;9.744;2022-12-05T15:12:00;4.50;;;3.00;;
18512;SDS011;9385;48.380;9.744;2022-12-05T15:14:32;4.93;;;3.33;;
18512;SDS011;9385;48.380;9.744;2022-12-05T15:17:03;5.20;;;3.50;;
18512;SDS011;9385;48.380;9.744;2022-12-05T15:19:37;5.50;;;3.23;;
18512;SDS011;9385;48.380;9.744;2022-12-05T15:22:11;4.80;;;2.80;;
18512;SDS011;9385;48.380;9.744;2022-12-05T15:24:41;5.50;;;2.70;;
18512;SDS011;9385;48.380;9.744;2022-12-05T15:27:08;3.97;;;2.83;;
18512;SDS011;9385;48.380;9.744;2022-12-05T15:29:39;6.00;;;3.40;;
18512;SDS011;9385;48.380;9.744;2022-12-05T15:32:13;5.60;;;3.55;;
18512;SDS011;9385;48.380;9.744;2022-12-05T15:34:43;4.95;;;3.05;;
18512;SDS011;9385;48.380;9.744;2022-12-05T15:37:14;5.55;;;2.90;;